sensor_id;sensor_type;location;lat;lon;timestamp;P1;P2;P0
20157;PMS5003;10239;56.820;24.416;2023-03-30T00:02:03;0.00;0.00;0.00
20157;PMS5003;10239;56.820;24.416;2023-03-30T00:04:31;1.00;1.00;0.00
20157;PMS5003;10239;56.820;24.416;2023-03-30T00:07:00;1.00;0.00;0.00
20157;PMS5003;10239;56.820;24.416;2023-03-30T00:09:28;0.00;0.00;0.00
20157;PMS5003;10239;56.820;24.416;2023-03-30T00:11:56;0.00;0.00;0.00
20157;PMS5003;10239;56.820;24.416;2023-03-30T00:14:29;1.00;1.00;0.00
20157;PMS5003;10239;56.820;24.416;2023-03-30T00:16:56;1.50;1.00;0.00
20157;PMS5003;10239;56.820;24.416;2023-03-30T00:19:24;0.00;0.00;0.00
20157;PMS5003;10239;56.820;24.416;2023-03-30T00:21:52;2.25;1.00;0.00
20157;PMS5003;10239;56.820;24.416;2023-03-30T00:24:19;1.25;1.25;0.25
20157;PMS5003;10239;56.820;24.416;2023-03-30T00:26:47;1.00;1.00;0.00
20157;PMS5003;10239;56.820;24.416;2023-03-30T00:29:15;1.00;1.00;0.00
20157;PMS5003;10239;56.820;24.416;2023-03-30T00:31:42;0.00;0.00;0.00
20157;PMS5003;10239;56.820;24.416;2023-03-30T00:34:10;1.00;1.00;0.00
20157;PMS5003;10239;56.820;24.416;2023-03-30T00:36:38;1.00;1.00;0.00
20157;PMS5003;10239;56.820;24.416;2023-03-30T00:39:05;0.00;0.00;0.00
20157;PMS5003;10239;56.820;24.416;2023-03-30T00:41:34;0.50;0.50;0.00
20157;PMS5003;10239;56.820;24.416;2023-03-30T00:44:04;0.00;0.00;0.00
20157;PMS5003;10239;56.820;24.416;2023-03-30T00:46:33;0.00;0.00;0.00
20157;PMS5003;10239;56.820;24.416;2023-03-30T00:49:05;0.25;0.25;0.00
20157;PMS5003;10239;56.820;24.416;2023-03-30T00:51:37;0.00;0.00;0.00
20157;PMS5003;10239;56.820;24.416;2023-03-30T00:54:10;1.00;0.75;0.00
20157;PMS5003;10239;56.820;24.416;2023-03-30T00:56:41;3.00;0.00;0.00
20157;PMS5003;10239;56.820;24.416;2023-03-30T00:59:09;3.00;0.25;0.00
20157;PMS5003;10239;56.820;24.416;2023-03-30T01:01:38;0.00;0.00;0.00
20157;PMS5003;10239;56.820;24.416;2023-03-30T01:04:10;1.00;1.00;0.00
20157;PMS5003;10239;56.820;24.416;2023-03-30T01:06:38;1.00;1.00;0.00
20157;PMS5003;10239;56.820;24.416;2023-03-30T01:09:06;0.75;0.75;0.00
20157;PMS5003;10239;56.820;24.416;2023-03-30T01:11:35;4.00;1.00;0.00
20157;PMS5003;10239;56.820;24.416;2023-03-30T01:14:03;0.75;0.75;0.00
20157;PMS5003;10239;56.820;24.416;2023-03-30T01:16:48;7.50;3.25;0.50
20157;PMS5003;10239;56.820;24.416;2023-03-30T01:51:01;0.00;0.00;0.00
20157;PMS5003;10239;56.820;24.416;2023-03-30T01:53:53;0.50;0.50;0.00
20157;PMS5003;10239;56.820;24.416;2023-03-30T01:59:25;3.25;0.50;0.25
20157;PMS5003;10239;56.820;24.416;2023-03-30T02:01:58;0.00;0.00;0.00
20157;PMS5003;10239;56.820;24.416;2023-03-30T02:04:32;1.00;1.00;0.00
20157;PMS5003;10239;56.820;24.416;2023-03-30T02:07:09;4.00;1.00;0.00
20157;PMS5003;10239;56.820;24.416;2023-03-30T02:09:42;3.25;0.25;0.00
20157;PMS5003;10239;56.820;24.416;2023-03-30T02:12:12;3.00;3.00;0.00
20157;PMS5003;10239;56.820;24.416;2023-03-30T02:14:41;3.75;1.50;1.00
20157;PMS5003;10239;56.820;24.416;2023-03-30T02:17:16;1.00;1.00;0.00
20157;PMS5003;10239;56.820;24.416;2023-03-30T02:19:49;3.00;0.00;0.00
20157;PMS5003;10239;56.820;24.416;2023-03-30T02:22:18;1.00;1.00;0.00
20157;PMS5003;10239;56.820;24.416;2023-03-30T02:24:47;2.50;1.00;0.00
20157;PMS5003;10239;56.820;24.416;2023-03-30T02:27:20;1.00;1.00;0.00
20157;PMS5003;10239;56.820;24.416;2023-03-30T02:29:48;0.75;0.75;0.00
20157;PMS5003;10239;56.820;24.416;2023-03-30T02:32:27;0.75;0.75;0.00
20157;PMS5003;10239;56.820;24.416;2023-03-30T02:44:36;1.50;1.00;0.00
20157;PMS5003;10239;56.820;24.416;2023-03-30T02:53:22;0.00;0.00;0.00
20157;PMS5003;10239;56.820;24.416;2023-03-30T02:56:12;3.75;3.00;0.25
20157;PMS5003;10239;56.820;24.416;2023-03-30T03:04:26;1.00;1.00;0.00
20157;PMS5003;10239;56.820;24.416;2023-03-30T03:07:15;0.00;0.00;0.00
20157;PMS5003;10239;56.820;24.416;2023-03-30T03:09:45;5.25;5.25;5.00
20157;PMS5003;10239;56.820;24.416;2023-03-30T03:12:13;4.50;4.50;3.00
20157;PMS5003;10239;56.820;24.416;2023-03-30T03:14:40;3.50;1.00;0.00
20157;PMS5003;10239;56.820;24.416;2023-03-30T03:17:10;13.75;12.00;10.00
20157;PMS5003;10239;56.820;24.416;2023-03-30T03:19:43;1.00;0.00;0.00
20157;PMS5003;10239;56.820;24.416;2023-03-30T03:22:13;10.75;10.75;9.50
20157;PMS5003;10239;56.820;24.416;2023-03-30T03:24:40;4.50;3.50;1.75
20157;PMS5003;10239;56.820;24.416;2023-03-30T03:27:30;1.50;1.50;1.00
20157;PMS5003;10239;56.820;24.416;2023-03-30T03:30:06;0.00;0.00;0.00
20157;PMS5003;10239;56.820;24.416;2023-03-30T03:32:40;1.50;0.25;0.25
20157;PMS5003;10239;56.820;24.416;2023-03-30T03:35:08;5.00;2.50;0.00
20157;PMS5003;10239;56.820;24.416;2023-03-30T03:37:37;5.25;3.25;3.00
20157;PMS5003;10239;56.820;24.416;2023-03-30T03:40:04;5.75;2.00;0.00
20157;PMS5003;10239;56.820;24.416;2023-03-30T03:42:33;4.75;4.00;1.50
20157;PMS5003;10239;56.820;24.416;2023-03-30T03:45:07;3.75;2.50;2.50
20157;PMS5003;10239;56.820;24.416;2023-03-30T03:47:45;7.50;7.50;7.00
20157;PMS5003;10239;56.820;24.416;2023-03-30T03:50:12;9.00;6.25;3.75
20157;PMS5003;10239;56.820;24.416;2023-03-30T03:52:41;4.25;4.25;1.75
20157;PMS5003;10239;56.820;24.416;2023-03-30T03:55:08;6.75;3.50;1.50
20157;PMS5003;10239;56.820;24.416;2023-03-30T03:57:39;5.50;1.00;0.00
20157;PMS5003;10239;56.820;24.416;2023-03-30T04:00:07;7.25;6.00;4.00
20157;PMS5003;10239;56.820;24.416;2023-03-30T04:02:51;3.75;1.00;0.00
20157;PMS5003;10239;56.820;24.416;2023-03-30T04:05:18;6.50;4.00;1.00
20157;PMS5003;10239;56.820;24.416;2023-03-30T04:07:45;5.50;1.00;1.00
20157;PMS5003;10239;56.820;24.416;2023-03-30T04:10:13;5.00;5.00;4.25
20157;PMS5003;10239;56.820;24.416;2023-03-30T04:13:07;2.50;1.50;1.00
20157;PMS5003;10239;56.820;24.416;2023-03-30T04:16:07;7.00;3.00;1.00
20157;PMS5003;10239;56.820;24.416;2023-03-30T04:18:52;8.00;5.00;1.50
20157;PMS5003;10239;56.820;24.416;2023-03-30T04:21:40;3.00;3.00;1.00
20157;PMS5003;10239;56.820;24.416;2023-03-30T04:24:32;3.50;1.50;0.50
20157;PMS5003;10239;56.820;24.416;2023-03-30T04:27:24;7.00;7.00;4.50
20157;PMS5003;10239;56.820;24.416;2023-03-30T04:30:32;4.25;3.50;3.00
20157;PMS5003;10239;56.820;24.416;2023-03-30T04:33:18;2.50;1.50;0.00
20157;PMS5003;10239;56.820;24.416;2023-03-30T04:36:12;7.25;3.25;1.00
20157;PMS5003;10239;56.820;24.416;2023-03-30T04:39:09;4.00;4.00;2.00
20157;PMS5003;10239;56.820;24.416;2023-03-30T04:42:04;1.00;1.00;0.75
20157;PMS5003;10239;56.820;24.416;2023-03-30T04:44:41;1.50;1.50;0.00
20157;PMS5003;10239;56.820;24.416;2023-03-30T04:47:14;2.25;2.25;1.00
20157;PMS5003;10239;56.820;24.416;2023-03-30T04:50:20;3.50;3.50;0.75
20157;PMS5003;10239;56.820;24.416;2023-03-30T04:53:06;6.75;4.50;1.00
20157;PMS5003;10239;56.820;24.416;2023-03-30T04:55:52;9.00;4.50;2.00
20157;PMS5003;10239;56.820;24.416;2023-03-30T04:58:55;3.50;3.50;1.50
20157;PMS5003;10239;56.820;24.416;2023-03-30T05:01:42;10.00;5.50;2.50
20157;PMS5003;10239;56.820;24.416;2023-03-30T05:04:36;3.25;1.00;0.00
20157;PMS5003;10239;56.820;24.416;2023-03-30T05:07:36;4.50;3.00;1.00
20157;PMS5003;10239;56.820;24.416;2023-03-30T05:10:23;3.00;3.00;1.50
20157;PMS5003;10239;56.820;24.416;2023-03-30T05:12:54;5.25;5.25;3.00
20157;PMS5003;10239;56.820;24.416;2023-03-30T05:15:40;4.75;3.25;1.00
20157;PMS5003;10239;56.820;24.416;2023-03-30T05:18:40;11.00;6.00;3.00
20157;PMS5003;10239;56.820;24.416;2023-03-30T05:21:38;7.50;4.50;2.00
20157;PMS5003;10239;56.820;24.416;2023-03-30T05:24:12;10.75;5.75;3.00
20157;PMS5003;10239;56.820;24.416;2023-03-30T05:26:58;16.75;12.75;4.50
20157;PMS5003;10239;56.820;24.416;2023-03-30T05:29:46;7.50;5.50;3.25
20157;PMS5003;10239;56.820;24.416;2023-03-30T05:32:23;1.00;1.00;0.75
20157;PMS5003;10239;56.820;24.416;2023-03-30T05:35:09;6.00;4.25;1.50
20157;PMS5003;10239;56.820;24.416;2023-03-30T05:37:56;6.25;6.25;1.50
20157;PMS5003;10239;56.820;24.416;2023-03-30T05:40:30;9.00;6.00;2.50
20157;PMS5003;10239;56.820;24.416;2023-03-30T05:43:18;3.00;3.00;1.00
20157;PMS5003;10239;56.820;24.416;2023-03-30T05:45:49;3.00;3.00;1.50
20157;PMS5003;10239;56.820;24.416;2023-03-30T05:48:30;7.50;5.50;3.00
20157;PMS5003;10239;56.820;24.416;2023-03-30T05:51:06;7.75;5.00;1.50
20157;PMS5003;10239;56.820;24.416;2023-03-30T05:53:49;3.25;3.25;1.50
20157;PMS5003;10239;56.820;24.416;2023-03-30T05:56:53;5.00;4.50;3.00
20157;PMS5003;10239;56.820;24.416;2023-03-30T05:59:45;6.75;5.50;3.00
20157;PMS5003;10239;56.820;24.416;2023-03-30T06:02:36;11.50;9.50;4.00
20157;PMS5003;10239;56.820;24.416;2023-03-30T06:05:10;9.75;6.75;1.50
20157;PMS5003;10239;56.820;24.416;2023-03-30T06:07:40;14.25;8.00;3.00
20157;PMS5003;10239;56.820;24.416;2023-03-30T06:10:08;7.75;7.00;3.00
20157;PMS5003;10239;56.820;24.416;2023-03-30T06:12:36;10.25;7.00;3.00
20157;PMS5003;10239;56.820;24.416;2023-03-30T06:15:10;16.75;10.75;5.50
20157;PMS5003;10239;56.820;24.416;2023-03-30T06:17:48;9.00;9.00;4.50
20157;PMS5003;10239;56.820;24.416;2023-03-30T06:20:18;6.00;6.00;6.00
20157;PMS5003;10239;56.820;24.416;2023-03-30T06:22:49;8.25;8.25;3.25
20157;PMS5003;10239;56.820;24.416;2023-03-30T06:25:20;11.50;9.25;4.00
20157;PMS5003;10239;56.820;24.416;2023-03-30T06:27:50;14.50;10.00;4.50
20157;PMS5003;10239;56.820;24.416;2023-03-30T06:30:25;9.60;6.20;2.20
20157;PMS5003;10239;56.820;24.416;2023-03-30T06:32:56;7.75;4.25;3.25
20157;PMS5003;10239;56.820;24.416;2023-03-30T06:35:50;6.80;4.80;3.80
20157;PMS5003;10239;56.820;24.416;2023-03-30T06:38:21;15.75;6.25;4.00
20157;PMS5003;10239;56.820;24.416;2023-03-30T06:40:51;10.00;8.60;4.00
20157;PMS5003;10239;56.820;24.416;2023-03-30T06:43:22;12.60;6.60;2.20
20157;PMS5003;10239;56.820;24.416;2023-03-30T06:46:04;8.00;6.20;3.00
20157;PMS5003;10239;56.820;24.416;2023-03-30T06:48:33;19.00;12.00;6.00
20157;PMS5003;10239;56.820;24.416;2023-03-30T06:51:19;12.00;10.25;6.25
20157;PMS5003;10239;56.820;24.416;2023-03-30T06:53:47;14.80;9.00;3.40
20157;PMS5003;10239;56.820;24.416;2023-03-30T06:56:15;7.00;4.00;0.75
20157;PMS5003;10239;56.820;24.416;2023-03-30T06:59:00;13.00;10.00;6.00
20157;PMS5003;10239;56.820;24.416;2023-03-30T07:01:29;18.20;9.20;5.20
20157;PMS5003;10239;56.820;24.416;2023-03-30T07:04:20;15.00;9.50;5.50
20157;PMS5003;10239;56.820;24.416;2023-03-30T07:07:06;12.75;9.75;6.00
20157;PMS5003;10239;56.820;24.416;2023-03-30T07:09:34;15.50;11.50;6.00
20157;PMS5003;10239;56.820;24.416;2023-03-30T07:12:01;16.00;10.40;6.00
20157;PMS5003;10239;56.820;24.416;2023-03-30T07:14:29;9.40;5.60;3.20
20157;PMS5003;10239;56.820;24.416;2023-03-30T07:16:57;11.60;8.60;5.20
20157;PMS5003;10239;56.820;24.416;2023-03-30T07:19:24;14.75;11.75;6.00
20157;PMS5003;10239;56.820;24.416;2023-03-30T07:21:51;17.75;13.25;8.00
20157;PMS5003;10239;56.820;24.416;2023-03-30T07:24:22;9.00;6.25;0.75
20157;PMS5003;10239;56.820;24.416;2023-03-30T07:26:50;11.80;11.60;4.00
20157;PMS5003;10239;56.820;24.416;2023-03-30T07:29:18;13.80;13.60;6.00
20157;PMS5003;10239;56.820;24.416;2023-03-30T07:31:50;17.50;12.75;6.75
20157;PMS5003;10239;56.820;24.416;2023-03-30T07:34:19;14.75;14.00;7.00
20157;PMS5003;10239;56.820;24.416;2023-03-30T07:36:52;11.60;8.60;5.60
20157;PMS5003;10239;56.820;24.416;2023-03-30T07:39:24;14.00;11.80;6.00
20157;PMS5003;10239;56.820;24.416;2023-03-30T07:41:51;18.20;12.80;6.60
20157;PMS5003;10239;56.820;24.416;2023-03-30T07:44:19;19.60;13.80;4.80
20157;PMS5003;10239;56.820;24.416;2023-03-30T07:46:47;9.00;6.60;1.40
20157;PMS5003;10239;56.820;24.416;2023-03-30T07:49:22;14.60;10.00;4.00
20157;PMS5003;10239;56.820;24.416;2023-03-30T07:51:51;22.60;11.40;5.20
20157;PMS5003;10239;56.820;24.416;2023-03-30T07:54:26;14.20;13.80;6.00
20157;PMS5003;10239;56.820;24.416;2023-03-30T07:57:03;11.60;11.60;6.80
20157;PMS5003;10239;56.820;24.416;2023-03-30T07:59:31;16.40;15.00;6.60
20157;PMS5003;10239;56.820;24.416;2023-03-30T08:02:11;17.60;17.60;7.00
20157;PMS5003;10239;56.820;24.416;2023-03-30T08:04:49;16.40;12.40;6.40
20157;PMS5003;10239;56.820;24.416;2023-03-30T08:07:32;12.60;12.60;8.60
20157;PMS5003;10239;56.820;24.416;2023-03-30T08:10:11;21.20;16.80;7.40
20157;PMS5003;10239;56.820;24.416;2023-03-30T08:12:39;20.40;15.00;7.00
20157;PMS5003;10239;56.820;24.416;2023-03-30T08:15:07;21.00;15.00;5.80
20157;PMS5003;10239;56.820;24.416;2023-03-30T08:17:35;9.60;7.60;3.00
20157;PMS5003;10239;56.820;24.416;2023-03-30T08:20:02;16.60;15.80;8.20
20157;PMS5003;10239;56.820;24.416;2023-03-30T08:22:36;16.60;6.60;3.40
20157;PMS5003;10239;56.820;24.416;2023-03-30T08:25:04;17.60;15.00;6.60
20157;PMS5003;10239;56.820;24.416;2023-03-30T08:27:31;14.00;9.40;2.80
20157;PMS5003;10239;56.820;24.416;2023-03-30T08:29:59;11.40;10.60;7.00
20157;PMS5003;10239;56.820;24.416;2023-03-30T08:32:27;17.40;14.00;5.60
20157;PMS5003;10239;56.820;24.416;2023-03-30T08:34:55;17.60;16.60;8.20
20157;PMS5003;10239;56.820;24.416;2023-03-30T08:37:22;10.40;7.00;2.20
20157;PMS5003;10239;56.820;24.416;2023-03-30T08:39:50;16.60;14.40;6.20
20157;PMS5003;10239;56.820;24.416;2023-03-30T08:44:57;12.20;8.80;5.00
20157;PMS5003;10239;56.820;24.416;2023-03-30T08:47:35;9.60;7.40;2.80
20157;PMS5003;10239;56.820;24.416;2023-03-30T08:50:16;13.00;13.00;5.00
20157;PMS5003;10239;56.820;24.416;2023-03-30T08:53:05;12.80;12.40;9.00
20157;PMS5003;10239;56.820;24.416;2023-03-30T08:58:52;15.00;13.00;5.40
20157;PMS5003;10239;56.820;24.416;2023-03-30T09:01:25;17.00;13.20;7.00
20157;PMS5003;10239;56.820;24.416;2023-03-30T09:07:00;18.60;14.40;7.00
20157;PMS5003;10239;56.820;24.416;2023-03-30T09:09:44;14.60;9.20;4.00
20157;PMS5003;10239;56.820;24.416;2023-03-30T09:14:50;15.40;13.00;6.20
20157;PMS5003;10239;56.820;24.416;2023-03-30T09:17:23;19.20;13.80;7.00
20157;PMS5003;10239;56.820;24.416;2023-03-30T09:20:09;19.20;13.00;6.00
20157;PMS5003;10239;56.820;24.416;2023-03-30T09:22:46;14.20;6.80;1.60
20157;PMS5003;10239;56.820;24.416;2023-03-30T09:25:19;12.20;11.60;7.00
20157;PMS5003;10239;56.820;24.416;2023-03-30T09:31:02;12.40;10.80;4.80
20157;PMS5003;10239;56.820;24.416;2023-03-30T09:33:43;19.40;12.80;6.40
20157;PMS5003;10239;56.820;24.416;2023-03-30T09:36:25;17.60;10.80;4.00
20157;PMS5003;10239;56.820;24.416;2023-03-30T09:39:24;14.60;12.40;5.60
20157;PMS5003;10239;56.820;24.416;2023-03-30T09:44:34;14.00;12.60;6.00
20157;PMS5003;10239;56.820;24.416;2023-03-30T09:47:23;13.20;9.40;3.00
20157;PMS5003;10239;56.820;24.416;2023-03-30T09:49:59;16.40;10.40;5.60
20157;PMS5003;10239;56.820;24.416;2023-03-30T09:52:31;13.60;10.00;6.00
20157;PMS5003;10239;56.820;24.416;2023-03-30T09:57:47;13.20;11.20;6.60
20157;PMS5003;10239;56.820;24.416;2023-03-30T10:02:59;17.80;11.40;5.60
20157;PMS5003;10239;56.820;24.416;2023-03-30T10:05:31;18.80;12.80;7.00
20157;PMS5003;10239;56.820;24.416;2023-03-30T10:08:03;16.20;10.80;6.00
20157;PMS5003;10239;56.820;24.416;2023-03-30T10:13:12;13.00;10.00;4.40
20157;PMS5003;10239;56.820;24.416;2023-03-30T10:15:43;19.20;11.60;6.00
20157;PMS5003;10239;56.820;24.416;2023-03-30T10:20:52;17.00;10.00;6.00
20157;PMS5003;10239;56.820;24.416;2023-03-30T10:23:30;10.00;10.00;4.00
20157;PMS5003;10239;56.820;24.416;2023-03-30T10:26:06;10.60;4.80;4.00
20157;PMS5003;10239;56.820;24.416;2023-03-30T10:29:04;18.00;14.00;6.20
20157;PMS5003;10239;56.820;24.416;2023-03-30T10:31:34;15.80;8.20;4.00
20157;PMS5003;10239;56.820;24.416;2023-03-30T10:34:03;13.60;9.20;4.00
20157;PMS5003;10239;56.820;24.416;2023-03-30T10:36:40;19.60;13.00;4.80
20157;PMS5003;10239;56.820;24.416;2023-03-30T10:41:38;14.20;10.40;7.00
20157;PMS5003;10239;56.820;24.416;2023-03-30T10:50:21;13.40;11.60;6.00
20157;PMS5003;10239;56.820;24.416;2023-03-30T10:55:56;13.80;11.60;6.60
20157;PMS5003;10239;56.820;24.416;2023-03-30T11:01:40;12.60;10.80;5.60
20157;PMS5003;10239;56.820;24.416;2023-03-30T11:04:17;15.80;12.00;6.00
20157;PMS5003;10239;56.820;24.416;2023-03-30T11:06:54;12.80;7.00;6.40
20157;PMS5003;10239;56.820;24.416;2023-03-30T11:09:25;9.60;7.80;4.00
20157;PMS5003;10239;56.820;24.416;2023-03-30T11:12:15;15.80;12.40;7.20
20157;PMS5003;10239;56.820;24.416;2023-03-30T11:14:48;26.60;16.80;8.60
20157;PMS5003;10239;56.820;24.416;2023-03-30T11:17:22;18.00;13.40;6.60
20157;PMS5003;10239;56.820;24.416;2023-03-30T11:22:48;20.40;16.00;8.60
20157;PMS5003;10239;56.820;24.416;2023-03-30T11:25:33;16.00;13.40;6.60
20157;PMS5003;10239;56.820;24.416;2023-03-30T11:31:22;11.00;9.20;6.20
20157;PMS5003;10239;56.820;24.416;2023-03-30T11:37:35;21.20;14.20;7.00
20157;PMS5003;10239;56.820;24.416;2023-03-30T11:40:21;19.20;13.40;6.00
20157;PMS5003;10239;56.820;24.416;2023-03-30T11:42:53;13.40;5.80;2.20
20157;PMS5003;10239;56.820;24.416;2023-03-30T11:45:34;20.00;12.80;5.80
20157;PMS5003;10239;56.820;24.416;2023-03-30T11:48:38;15.60;14.00;5.20
20157;PMS5003;10239;56.820;24.416;2023-03-30T11:51:37;14.00;11.40;4.80
20157;PMS5003;10239;56.820;24.416;2023-03-30T12:05:47;5.80;5.80;4.00
20157;PMS5003;10239;56.820;24.416;2023-03-30T12:08:47;18.80;17.60;8.00
20157;PMS5003;10239;56.820;24.416;2023-03-30T12:11:26;19.60;15.00;7.80
20157;PMS5003;10239;56.820;24.416;2023-03-30T12:13:56;23.60;13.60;7.80
20157;PMS5003;10239;56.820;24.416;2023-03-30T12:16:29;16.60;12.20;6.60
20157;PMS5003;10239;56.820;24.416;2023-03-30T12:19:14;19.40;15.00;6.80
20157;PMS5003;10239;56.820;24.416;2023-03-30T12:22:13;15.60;11.80;7.00
20157;PMS5003;10239;56.820;24.416;2023-03-30T12:30:42;16.40;9.80;1.40
20157;PMS5003;10239;56.820;24.416;2023-03-30T12:34:05;12.20;11.60;7.40
20157;PMS5003;10239;56.820;24.416;2023-03-30T12:36:31;15.40;9.00;6.20
20157;PMS5003;10239;56.820;24.416;2023-03-30T12:39:10;14.20;9.20;5.00
20157;PMS5003;10239;56.820;24.416;2023-03-30T12:42:14;18.20;14.40;6.20
20157;PMS5003;10239;56.820;24.416;2023-03-30T12:56:42;17.40;17.40;7.40
20157;PMS5003;10239;56.820;24.416;2023-03-30T12:59:33;19.60;11.00;6.60
20157;PMS5003;10239;56.820;24.416;2023-03-30T13:11:18;17.60;12.20;6.60
20157;PMS5003;10239;56.820;24.416;2023-03-30T13:27:20;19.20;11.00;4.00
20157;PMS5003;10239;56.820;24.416;2023-03-30T13:32:45;18.00;11.00;5.40
20157;PMS5003;10239;56.820;24.416;2023-03-30T13:52:38;19.40;14.80;7.80
20157;PMS5003;10239;56.820;24.416;2023-03-30T13:58:03;18.80;13.60;6.60
20157;PMS5003;10239;56.820;24.416;2023-03-30T14:03:24;14.20;14.20;7.00
20157;PMS5003;10239;56.820;24.416;2023-03-30T14:05:55;23.00;15.40;9.00
20157;PMS5003;10239;56.820;24.416;2023-03-30T14:08:30;19.80;16.40;7.40
20157;PMS5003;10239;56.820;24.416;2023-03-30T14:11:10;30.20;26.60;13.40
20157;PMS5003;10239;56.820;24.416;2023-03-30T14:13:48;15.80;12.80;7.20
20157;PMS5003;10239;56.820;24.416;2023-03-30T14:16:19;21.60;17.60;10.00
20157;PMS5003;10239;56.820;24.416;2023-03-30T14:18:52;27.60;15.80;4.00
20157;PMS5003;10239;56.820;24.416;2023-03-30T14:21:40;14.60;10.80;5.00
20157;PMS5003;10239;56.820;24.416;2023-03-30T14:24:18;17.20;13.00;5.40
20157;PMS5003;10239;56.820;24.416;2023-03-30T14:26:56;13.60;11.40;8.00
20157;PMS5003;10239;56.820;24.416;2023-03-30T14:29:32;17.60;14.20;5.80
20157;PMS5003;10239;56.820;24.416;2023-03-30T14:32:00;9.20;7.00;3.20
20157;PMS5003;10239;56.820;24.416;2023-03-30T14:34:35;25.40;16.20;7.20
20157;PMS5003;10239;56.820;24.416;2023-03-30T14:37:06;19.40;15.00;8.00
20157;PMS5003;10239;56.820;24.416;2023-03-30T14:39:38;18.00;14.80;7.60
20157;PMS5003;10239;56.820;24.416;2023-03-30T14:42:09;21.80;15.80;6.20
20157;PMS5003;10239;56.820;24.416;2023-03-30T14:44:40;25.40;20.00;8.00
20157;PMS5003;10239;56.820;24.416;2023-03-30T14:47:09;32.40;22.80;8.20
20157;PMS5003;10239;56.820;24.416;2023-03-30T14:49:38;13.40;13.40;7.80
20157;PMS5003;10239;56.820;24.416;2023-03-30T14:52:17;33.60;24.40;11.40
20157;PMS5003;10239;56.820;24.416;2023-03-30T14:54:47;24.20;19.00;10.80
20157;PMS5003;10239;56.820;24.416;2023-03-30T14:57:33;23.20;17.00;6.80
20157;PMS5003;10239;56.820;24.416;2023-03-30T15:00:39;26.60;19.00;12.00
20157;PMS5003;10239;56.820;24.416;2023-03-30T15:03:02;23.60;16.80;8.40
20157;PMS5003;10239;56.820;24.416;2023-03-30T15:05:33;14.20;12.40;9.20
20157;PMS5003;10239;56.820;24.416;2023-03-30T15:08:03;16.20;13.20;8.00
20157;PMS5003;10239;56.820;24.416;2023-03-30T15:10:35;18.00;13.80;7.00
20157;PMS5003;10239;56.820;24.416;2023-03-30T15:13:19;20.60;14.60;7.60
20157;PMS5003;10239;56.820;24.416;2023-03-30T15:15:58;23.20;16.80;7.20
20157;PMS5003;10239;56.820;24.416;2023-03-30T15:18:27;13.00;9.80;2.80
20157;PMS5003;10239;56.820;24.416;2023-03-30T15:20:56;24.40;18.20;8.00
20157;PMS5003;10239;56.820;24.416;2023-03-30T15:23:30;23.60;16.20;8.40
20157;PMS5003;10239;56.820;24.416;2023-03-30T15:26:03;19.00;16.00;8.80
20157;PMS5003;10239;56.820;24.416;2023-03-30T15:28:34;22.60;16.40;9.60
20157;PMS5003;10239;56.820;24.416;2023-03-30T15:31:11;17.40;14.00;4.80
20157;PMS5003;10239;56.820;24.416;2023-03-30T15:33:43;25.40;19.00;11.60
20157;PMS5003;10239;56.820;24.416;2023-03-30T15:36:25;21.80;17.00;6.00
20157;PMS5003;10239;56.820;24.416;2023-03-30T15:39:02;24.00;18.60;9.60
20157;PMS5003;10239;56.820;24.416;2023-03-30T15:41:48;24.80;16.40;8.80
20157;PMS5003;10239;56.820;24.416;2023-03-30T15:44:27;20.00;18.20;8.00
20157;PMS5003;10239;56.820;24.416;2023-03-30T15:46:55;26.80;19.40;9.60
20157;PMS5003;10239;56.820;24.416;2023-03-30T15:49:27;38.80;25.80;11.60
20157;PMS5003;10239;56.820;24.416;2023-03-30T15:52:01;36.60;25.20;14.40
20157;PMS5003;10239;56.820;24.416;2023-03-30T15:54:42;26.60;22.60;11.80
20157;PMS5003;10239;56.820;24.416;2023-03-30T15:57:18;19.80;13.20;6.00
20157;PMS5003;10239;56.820;24.416;2023-03-30T15:59:56;34.80;30.60;14.40
20157;PMS5003;10239;56.820;24.416;2023-03-30T16:02:40;26.80;21.40;10.60
20157;PMS5003;10239;56.820;24.416;2023-03-30T16:05:18;31.60;20.80;12.00
20157;PMS5003;10239;56.820;24.416;2023-03-30T16:07:49;29.20;21.60;11.60
20157;PMS5003;10239;56.820;24.416;2023-03-30T16:10:23;40.60;31.60;14.00
20157;PMS5003;10239;56.820;24.416;2023-03-30T16:12:57;38.60;26.60;12.20
20157;PMS5003;10239;56.820;24.416;2023-03-30T16:15:29;31.40;24.80;12.00
20157;PMS5003;10239;56.820;24.416;2023-03-30T16:18:00;35.80;30.00;18.00
20157;PMS5003;10239;56.820;24.416;2023-03-30T16:20:29;22.20;12.80;11.60
20157;PMS5003;10239;56.820;24.416;2023-03-30T16:22:58;30.60;24.40;12.00
20157;PMS5003;10239;56.820;24.416;2023-03-30T16:25:26;39.20;27.60;14.40
20157;PMS5003;10239;56.820;24.416;2023-03-30T16:27:57;31.20;23.40;14.20
20157;PMS5003;10239;56.820;24.416;2023-03-30T16:30:25;24.60;21.60;12.60
20157;PMS5003;10239;56.820;24.416;2023-03-30T16:32:56;31.80;26.00;13.40
20157;PMS5003;10239;56.820;24.416;2023-03-30T16:35:25;31.80;26.80;14.80
20157;PMS5003;10239;56.820;24.416;2023-03-30T16:37:53;30.60;26.20;12.20
20157;PMS5003;10239;56.820;24.416;2023-03-30T16:40:24;31.20;25.60;14.00
20157;PMS5003;10239;56.820;24.416;2023-03-30T16:42:58;37.20;28.00;14.20
20157;PMS5003;10239;56.820;24.416;2023-03-30T16:45:25;48.00;37.60;15.20
20157;PMS5003;10239;56.820;24.416;2023-03-30T16:47:53;30.80;22.80;14.40
20157;PMS5003;10239;56.820;24.416;2023-03-30T16:53:01;42.60;28.20;15.40
20157;PMS5003;10239;56.820;24.416;2023-03-30T16:55:28;36.00;27.60;13.40
20157;PMS5003;10239;56.820;24.416;2023-03-30T16:57:56;27.20;24.00;12.20
20157;PMS5003;10239;56.820;24.416;2023-03-30T17:00:25;33.80;27.60;17.40
20157;PMS5003;10239;56.820;24.416;2023-03-30T17:02:55;34.20;24.00;11.00
20157;PMS5003;10239;56.820;24.416;2023-03-30T17:05:23;37.00;32.40;17.00
20157;PMS5003;10239;56.820;24.416;2023-03-30T17:07:52;53.40;38.20;21.20
20157;PMS5003;10239;56.820;24.416;2023-03-30T17:10:24;73.60;57.60;31.00
20157;PMS5003;10239;56.820;24.416;2023-03-30T17:12:54;29.60;27.60;13.80
20157;PMS5003;10239;56.820;24.416;2023-03-30T17:15:23;99.00;67.25;36.50
20157;PMS5003;10239;56.820;24.416;2023-03-30T17:17:51;71.00;51.40;24.00
20157;PMS5003;10239;56.820;24.416;2023-03-30T17:20:23;51.00;39.60;19.60
20157;PMS5003;10239;56.820;24.416;2023-03-30T17:22:54;53.00;42.60;22.20
20157;PMS5003;10239;56.820;24.416;2023-03-30T17:25:22;36.60;29.80;12.00
20157;PMS5003;10239;56.820;24.416;2023-03-30T17:27:52;29.80;24.60;14.20
20157;PMS5003;10239;56.820;24.416;2023-03-30T17:30:28;33.80;24.60;14.00
20157;PMS5003;10239;56.820;24.416;2023-03-30T17:32:59;26.00;23.80;12.20
20157;PMS5003;10239;56.820;24.416;2023-03-30T17:35:26;27.00;22.80;11.00
20157;PMS5003;10239;56.820;24.416;2023-03-30T17:37:54;32.40;22.60;13.20
20157;PMS5003;10239;56.820;24.416;2023-03-30T17:40:26;23.20;21.80;12.60
20157;PMS5003;10239;56.820;24.416;2023-03-30T17:42:55;42.40;29.20;13.80
20157;PMS5003;10239;56.820;24.416;2023-03-30T17:45:24;31.20;24.00;11.40
20157;PMS5003;10239;56.820;24.416;2023-03-30T17:47:52;25.20;23.80;9.00
20157;PMS5003;10239;56.820;24.416;2023-03-30T17:50:22;34.60;24.20;11.60